Time;durP1;ratioP1;P1;durP2;ratioP2;P2;SDS_P1;SDS_P2;PMS_P1;PMS_P2;Temp;Humidity;BMP_temperature;BMP_pressure;BME280_temperature;BME280_humidity;BME280_pressure;Samples;Min_cycle;Max_cycle;Signal;HPM_P1;HPM_P2
2022/05/12 00:01:12;;;;;;;18.20;10.00;;;21.00;85.60;;;;;;5030992;28;20121;-80
2022/05/12 00:03:38;;;;;;;4.75;2.53;;;;;;;;;;5014747;28;20540;-83
2022/05/12 00:06:04;;;;;;;2.85;1.70;;;20.50;74.70;;;;;;5031223;28;20048;-83
2022/05/12 00:08:29;;;;;;;2.85;1.80;;;20.50;75.40;;;;;;5023201;28;20029;-82
2022/05/12 00:10:56;;;;;;;4.47;2.10;;;20.40;75.90;;;;;;5038451;28;20037;-81
2022/05/12 00:13:21;;;;;;;14.82;8.30;;;20.40;92.50;;;;;;5017317;28;20105;-83
2022/05/12 00:15:48;;;;;;;6.75;1.50;;;20.30;86.50;;;;;;5038989;28;20037;-83
2022/05/12 00:18:14;;;;;;;10.75;5.80;;;20.40;76.60;;;;;;5021903;28;20021;-83
2022/05/12 00:20:41;;;;;;;3.22;1.88;;;20.20;76.90;;;;;;5018679;28;20082;-83
2022/05/12 00:23:08;;;;;;;4.53;1.85;;;20.10;77.10;;;;;;5031043;28;20029;-84
2022/05/12 00:25:34;;;;;;;6.55;1.95;;;20.00;77.00;;;;;;5034702;28;20021;-83
2022/05/12 00:27:59;;;;;;;2.70;1.63;;;20.00;77.50;;;;;;5019579;28;20076;-81
2022/05/12 00:30:25;;;;;;;3.38;1.95;;;20.30;77.80;;;;;;5019139;28;20039;-84
2022/05/12 00:32:51;;;;;;;4.60;2.22;;;19.80;77.80;;;;;;5020169;28;20037;-84
2022/05/12 00:35:16;;;;;;;3.45;1.80;;;19.90;78.40;;;;;;5002602;28;20566;-84
2022/05/12 00:37:43;;;;;;;5.10;1.70;;;19.80;78.50;;;;;;5035798;28;20060;-83
2022/05/12 00:40:11;;;;;;;4.22;1.80;;;19.80;78.90;;;;;;5021840;28;20033;-83
2022/05/12 00:42:51;;;;;;;6.50;2.58;;;19.70;79.20;;;;;;5033347;28;20029;-82
2022/05/12 00:45:16;;;;;;;4.13;1.83;;;;;;;;;;5034840;28;20060;-84
2022/05/12 00:47:42;;;;;;;3.25;1.50;;;19.70;78.90;;;;;;5038193;28;20280;-84
2022/05/12 00:50:09;;;;;;;2.60;1.80;;;19.70;79.50;;;;;;5024360;28;20033;-83
2022/05/12 00:52:35;;;;;;;5.35;2.25;;;;;;;;;;5038421;28;20034;-84
2022/05/12 00:55:11;;;;;;;5.88;2.05;;;19.60;79.90;;;;;;5018795;28;20049;-81
2022/05/12 00:57:45;;;;;;;6.60;2.53;;;19.60;79.70;;;;;;5041988;28;20029;-83
2022/05/12 01:00:13;;;;;;;5.18;1.65;;;19.60;79.90;;;;;;5020979;28;20025;-80
2022/05/12 01:02:40;;;;;;;4.25;1.60;;;19.60;80.80;;;;;;5022252;28;20029;-82
2022/05/12 01:05:07;;;;;;;8.63;2.95;;;19.50;81.20;;;;;;5035317;28;20060;-80
2022/05/12 01:07:35;;;;;;;4.93;1.70;;;19.50;80.80;;;;;;5020537;28;20029;-82
2022/05/12 01:10:03;;;;;;;2.83;1.50;;;19.40;81.40;;;;;;5023866;28;20027;-82
2022/05/12 01:12:28;;;;;;;3.40;1.77;;;19.30;81.70;;;;;;5035884;28;20033;-81
2022/05/12 01:14:54;;;;;;;6.05;1.63;;;19.30;82.30;;;;;;5038273;28;20025;-82
2022/05/12 01:17:23;;;;;;;9.93;5.18;;;19.30;82.70;;;;;;5044636;28;20033;-81
2022/05/12 01:19:51;;;;;;;3.92;1.88;;;;;;;;;;5027071;28;20379;-85
2022/05/12 01:22:41;;;;;;;3.25;1.50;;;19.10;82.90;;;;;;5039695;28;20018;-83
2022/05/12 01:25:14;;;;;;;3.10;1.48;;;19.10;83.60;;;;;;5022788;28;20503;-84
2022/05/12 01:27:42;;;;;;;4.13;1.60;;;19.00;83.90;;;;;;5019773;28;20120;-85
2022/05/12 01:30:09;;;;;;;2.85;1.45;;;19.00;83.80;;;;;;5022691;28;20025;-84
2022/05/12 01:32:35;;;;;;;4.72;1.65;;;;;;;;;;5036621;28;20040;-83
2022/05/12 01:35:01;;;;;;;2.53;1.50;;;19.00;84.90;;;;;;5038104;28;20033;-84
2022/05/12 01:37:28;;;;;;;7.13;1.50;;;18.90;85.30;;;;;;5041058;28;20075;-80
2022/05/12 01:39:54;;;;;;;4.03;1.33;;;;;;;;;;5037936;28;20035;-81
2022/05/12 01:42:20;;;;;;;2.00;1.40;;;;;;;;;;5040290;28;20025;-81
2022/05/12 01:44:46;;;;;;;5.00;1.55;;;;;;;;;;5042073;28;20046;-83
2022/05/12 01:47:15;;;;;;;5.13;1.60;;;18.80;86.60;;;;;;5025676;28;20025;-81
2022/05/12 01:49:41;;;;;;;4.38;2.05;;;19.70;87.60;;;;;;5025374;28;20056;-82
2022/05/12 01:52:08;;;;;;;2.78;1.48;;;18.80;87.30;;;;;;5022903;28;20026;-82
2022/05/12 01:54:33;;;;;;;5.07;1.85;;;18.70;87.40;;;;;;5022237;28;20018;-82
2022/05/12 01:56:59;;;;;;;7.28;2.53;;;18.70;87.90;;;;;;5033318;28;20037;-80
2022/05/12 01:59:25;;;;;;;2.78;1.45;;;18.70;88.00;;;;;;5020896;28;20060;-82
2022/05/12 02:01:52;;;;;;;5.60;2.05;;;18.70;88.10;;;;;;5022098;28;20081;-81
2022/05/12 02:04:18;;;;;;;5.03;1.58;;;18.70;88.30;;;;;;5020602;28;20022;-82
2022/05/12 02:06:45;;;;;;;4.05;1.70;;;18.80;88.40;;;;;;5037238;28;20056;-83
2022/05/12 02:09:11;;;;;;;4.38;1.70;;;19.00;89.10;;;;;;5016797;28;20026;-83
2022/05/12 02:11:38;;;;;;;4.45;1.85;;;18.60;89.10;;;;;;5021124;28;20437;-84
2022/05/12 02:14:05;;;;;;;3.30;1.80;;;18.60;89.40;;;;;;5031308;28;20033;-83
2022/05/12 02:16:33;;;;;;;6.97;1.55;;;18.80;89.80;;;;;;5035513;28;20113;-84
2022/05/12 02:19:01;;;;;;;3.75;1.88;;;18.60;90.00;;;;;;5022005;28;20022;-82
2022/05/12 02:21:27;;;;;;;4.70;1.42;;;;;;;;;;5037396;28;20038;-81
2022/05/12 02:23:53;;;;;;;5.63;1.45;;;18.50;90.00;;;;;;5035146;28;20064;-83
2022/05/12 02:26:19;;;;;;;6.22;1.50;;;18.40;90.40;;;;;;5033943;28;20029;-81
2022/05/12 02:28:44;;;;;;;4.25;1.50;;;18.40;90.20;;;;;;5036323;28;20032;-81
2022/05/12 02:31:10;;;;;;;2.38;1.45;;;18.40;90.70;;;;;;5023518;28;20029;-83
2022/05/12 02:33:38;;;;;;;5.22;2.17;;;;;;;;;;5043532;28;20370;-81
2022/05/12 02:36:04;;;;;;;3.65;1.40;;;;;;;;;;5040653;28;20029;-83
2022/05/12 02:38:30;;;;;;;5.97;1.70;;;;;;;;;;5043841;28;20414;-85
2022/05/12 02:40:56;;;;;;;5.63;1.80;;;18.20;91.10;;;;;;5025405;28;20040;-81
2022/05/12 02:43:24;;;;;;;2.83;1.80;;;18.90;92.10;;;;;;5018178;28;20025;-82
2022/05/12 02:45:54;;;;;;;4.50;1.80;;;18.00;91.80;;;;;;5037175;28;20026;-83
2022/05/12 02:48:24;;;;;;;4.10;1.75;;;17.90;91.90;;;;;;5021045;28;20029;-82
2022/05/12 02:50:50;;;;;;;6.10;1.73;;;18.10;92.30;;;;;;5023054;28;20032;-82
2022/05/12 02:53:16;;;;;;;3.13;1.80;;;18.10;92.50;;;;;;5022923;28;20037;-82
2022/05/12 02:55:42;;;;;;;5.35;1.90;;;18.00;92.60;;;;;;5019903;28;20022;-83
2022/05/12 02:58:08;;;;;;;3.80;1.75;;;17.90;92.80;;;;;;5026361;28;20048;-82
2022/05/12 03:00:33;;;;;;;4.18;1.77;;;18.00;93.20;;;;;;5037366;28;20053;-83
2022/05/12 03:03:00;;;;;;;6.30;1.65;;;17.90;93.10;;;;;;5032861;28;20033;-83
2022/05/12 03:05:26;;;;;;;6.53;1.67;;;17.90;93.40;;;;;;5037972;28;20021;-81
2022/05/12 03:07:53;;;;;;;3.58;1.80;;;17.90;93.70;;;;;;5017100;28;20041;-84
2022/05/12 03:10:19;;;;;;;4.10;1.77;;;17.80;93.90;;;;;;5036484;28;20022;-83
2022/05/12 03:12:44;;;;;;;4.13;1.85;;;17.90;94.40;;;;;;5039215;28;20036;-82
2022/05/12 03:15:14;;;;;;;4.63;1.50;;;19.30;94.60;;;;;;5035355;28;20360;-84
2022/05/12 03:17:40;;;;;;;2.63;1.45;;;18.10;94.40;;;;;;5039388;28;20041;-84
2022/05/12 03:20:09;;;;;;;2.97;1.55;;;17.90;94.60;;;;;;5021105;28;20033;-84
2022/05/12 03:22:36;;;;;;;2.38;1.35;;;17.90;94.70;;;;;;5017723;28;20449;-82
2022/05/12 03:25:03;;;;;;;4.22;1.52;;;17.90;95.10;;;;;;5019806;28;20040;-82
2022/05/12 03:27:30;;;;;;;5.75;1.67;;;17.90;95.10;;;;;;5014703;28;20037;-82
2022/05/12 03:29:56;;;;;;;3.08;1.60;;;18.90;95.60;;;;;;5018904;28;20565;-81
2022/05/12 03:32:21;;;;;;;4.38;1.58;;;19.90;95.80;;;;;;5016879;28;20036;-82
2022/05/12 03:34:47;;;;;;;4.40;1.60;;;;;;;;;;5037854;28;20025;-82
2022/05/12 03:37:13;;;;;;;3.08;1.50;;;17.90;95.40;;;;;;5020025;28;20112;-82
2022/05/12 03:39:39;;;;;;;4.05;1.50;;;17.80;95.90;;;;;;5037238;28;20049;-82
2022/05/12 03:42:08;;;;;;;4.13;1.40;;;17.80;96.40;;;;;;5038219;28;20025;-85
2022/05/12 03:47:21;;;;;;;1.90;1.20;;;17.70;96.70;;;;;;5019188;28;20073;-81
2022/05/12 03:49:48;;;;;;;5.85;1.63;;;17.60;97.10;;;;;;5038012;28;20033;-81
2022/05/12 03:52:15;;;;;;;3.03;1.60;;;17.70;97.30;;;;;;5019010;28;20254;-83
2022/05/12 03:54:41;;;;;;;2.97;1.70;;;18.90;97.70;;;;;;5038138;28;20036;-82
2022/05/12 03:57:07;;;;;;;7.45;1.70;;;17.60;97.70;;;;;;5036593;28;20027;-83
2022/05/12 03:59:34;;;;;;;3.78;1.40;;;17.60;97.80;;;;;;5020171;28;20051;-81
2022/05/12 04:01:59;;;;;;;3.28;1.45;;;17.50;97.90;;;;;;5033649;28;20041;-82
2022/05/12 04:04:25;;;;;;;3.58;1.70;;;17.50;98.10;;;;;;5038116;28;20610;-82
2022/05/12 04:06:51;;;;;;;3.80;1.50;;;17.50;98.30;;;;;;5018688;28;20105;-83
2022/05/12 04:09:17;;;;;;;2.83;1.50;;;;;;;;;;5040532;28;20060;-83
2022/05/12 04:11:43;;;;;;;4.43;1.50;;;17.50;98.50;;;;;;5038318;28;20026;-82
2022/05/12 04:14:08;;;;;;;5.05;1.50;;;17.50;98.80;;;;;;5035865;28;20057;-82
2022/05/12 04:16:36;;;;;;;4.03;1.42;;;17.50;99.00;;;;;;5019697;28;20049;-81
2022/05/12 04:19:05;;;;;;;2.78;1.60;;;17.40;99.10;;;;;;5021735;28;20048;-83
2022/05/12 04:21:34;;;;;;;3.60;1.30;;;17.40;99.30;;;;;;5036798;28;20132;-82
2022/05/12 04:24:01;;;;;;;3.53;1.65;;;17.30;99.40;;;;;;5037987;28;20040;-85
2022/05/12 04:26:27;;;;;;;3.65;1.60;;;17.90;99.80;;;;;;5018031;28;20026;-83
2022/05/12 04:28:53;;;;;;;2.30;1.55;;;17.40;99.90;;;;;;5026563;28;20044;-80
2022/05/12 04:31:18;;;;;;;3.60;1.65;;;17.40;99.90;;;;;;5025440;28;20025;-83
2022/05/12 04:36:32;;;;;;;5.13;1.58;;;17.20;99.90;;;;;;5004581;28;20045;-82
2022/05/12 04:38:59;;;;;;;6.13;1.60;;;17.20;99.90;;;;;;5040269;28;20033;-84
2022/05/12 04:41:25;;;;;;;5.05;1.85;;;17.20;99.90;;;;;;5025810;28;20029;-81
2022/05/12 04:43:51;;;;;;;3.35;1.70;;;17.30;99.90;;;;;;5040606;28;20033;-82
2022/05/12 04:46:17;;;;;;;11.93;1.95;;;17.20;99.90;;;;;;5022924;28;20026;-83
2022/05/12 04:48:43;;;;;;;5.43;1.95;;;;;;;;;;5017325;28;20029;-82
2022/05/12 04:51:09;;;;;;;4.57;1.80;;;;;;;;;;5021240;28;20022;-82
2022/05/12 04:53:35;;;;;;;6.38;2.10;;;;;;;;;;5039171;28;20483;-84
2022/05/12 04:56:01;;;;;;;4.55;1.77;;;17.20;99.90;;;;;;5020952;28;20030;-84
2022/05/12 04:58:27;;;;;;;2.50;1.70;;;;;;;;;;5022271;28;20044;-83
2022/05/12 05:00:53;;;;;;;5.47;1.77;;;17.40;99.90;;;;;;5037456;28;20368;-84
2022/05/12 05:03:18;;;;;;;6.32;2.42;;;17.40;99.90;;;;;;5032173;28;20064;-84
2022/05/12 05:05:44;;;;;;;7.00;2.25;;;17.30;99.90;;;;;;5037438;28;20025;-82
2022/05/12 05:08:17;;;;;;;5.25;2.28;;;19.60;99.90;;;;;;5015420;28;20021;-83
2022/05/12 05:10:42;;;;;;;7.25;2.35;;;17.90;99.90;;;;;;5036173;28;20486;-85
2022/05/12 05:13:08;;;;;;;6.07;2.05;;;17.40;99.90;;;;;;5025991;28;20044;-80
2022/05/12 05:15:34;;;;;;;5.03;2.08;;;17.30;99.90;;;;;;5037447;28;20033;-82
2022/05/12 05:18:00;;;;;;;6.35;1.75;;;17.30;99.90;;;;;;5021273;28;20029;-84
2022/05/12 05:20:28;;;;;;;3.17;1.55;;;17.30;99.90;;;;;;5040752;28;20036;-81
2022/05/12 05:22:54;;;;;;;5.13;1.65;;;17.50;99.90;;;;;;5035092;28;20475;-82
2022/05/12 05:25:21;;;;;;;5.78;1.80;;;20.30;99.90;;;;;;5033208;28;20029;-84
2022/05/12 05:27:48;;;;;;;3.58;1.50;;;19.30;99.90;;;;;;5038620;28;20029;-82
2022/05/12 05:30:18;;;;;;;7.97;2.10;;;17.80;99.90;;;;;;5001066;28;20041;-82
2022/05/12 05:32:45;;;;;;;5.45;1.42;;;17.70;99.90;;;;;;5018225;28;20079;-83
2022/05/12 05:35:14;;;;;;;3.65;1.77;;;17.70;99.90;;;;;;5023250;28;20501;-82
2022/05/12 05:37:42;;;;;;;5.90;1.55;;;17.70;99.50;;;;;;5042258;28;20060;-81
2022/05/12 05:40:09;;;;;;;5.38;1.52;;;17.70;99.50;;;;;;5026359;28;20032;-81
2022/05/12 05:42:35;;;;;;;6.75;1.65;;;17.80;99.40;;;;;;5024011;28;20053;-80
2022/05/12 05:45:08;;;;;;;6.32;1.50;;;18.00;99.00;;;;;;5020839;28;20018;-82
2022/05/12 05:47:35;;;;;;;6.13;1.45;;;18.00;98.80;;;;;;5007589;28;20132;-82
2022/05/12 05:50:01;;;;;;;4.40;1.80;;;17.90;98.50;;;;;;5024094;28;20034;-82
2022/05/12 05:55:11;;;;;;;6.15;1.77;;;18.00;98.80;;;;;;5036058;28;20514;-80
2022/05/12 05:57:37;;;;;;;5.80;1.40;;;17.90;98.90;;;;;;5043739;28;20029;-82
2022/05/12 06:00:05;;;;;;;5.13;1.42;;;17.90;98.50;;;;;;5038472;28;20032;-80
2022/05/12 06:02:34;;;;;;;9.07;2.17;;;17.90;98.40;;;;;;5036396;28;20029;-81
2022/05/12 06:05:00;;;;;;;6.25;1.67;;;17.80;98.70;;;;;;5041122;28;20480;-81
2022/05/12 06:07:26;;;;;;;4.47;2.08;;;17.80;98.80;;;;;;5021313;28;20048;-83
2022/05/12 06:09:52;;;;;;;8.10;1.85;;;17.80;99.00;;;;;;5026247;28;20033;-82
2022/05/12 06:12:18;;;;;;;4.28;1.50;;;17.70;99.00;;;;;;5026603;28;20025;-83
2022/05/12 06:14:44;;;;;;;4.68;1.63;;;18.00;98.70;;;;;;5009488;28;20030;-82
2022/05/12 06:17:10;;;;;;;4.90;1.73;;;18.10;98.50;;;;;;5025422;28;20164;-82
2022/05/12 06:19:36;;;;;;;7.45;2.30;;;17.80;98.50;;;;;;5025583;28;20044;-80
2022/05/12 06:22:02;;;;;;;4.95;1.80;;;18.00;98.60;;;;;;5032912;28;20028;-83
2022/05/12 06:24:28;;;;;;;6.78;1.83;;;17.70;98.50;;;;;;5026741;28;20037;-80
2022/05/12 06:26:54;;;;;;;7.22;1.70;;;;;;;;;;5023204;28;20029;-82
2022/05/12 06:29:21;;;;;;;6.47;1.60;;;17.60;98.60;;;;;;5042474;28;20029;-82
2022/05/12 06:31:47;;;;;;;5.50;1.90;;;;;;;;;;5021314;28;20033;-80
2022/05/12 06:34:14;;;;;;;7.15;1.65;;;17.70;98.50;;;;;;5037690;28;20026;-82
2022/05/12 06:36:40;;;;;;;4.40;1.45;;;20.00;99.20;;;;;;5024552;28;20053;-84
2022/05/12 06:39:07;;;;;;;6.78;1.85;;;19.50;99.20;;;;;;5027225;28;20179;-80
2022/05/12 06:41:33;;;;;;;8.75;1.67;;;20.00;98.70;;;;;;5033073;28;20026;-83
2022/05/12 06:44:00;;;;;;;6.75;1.70;;;18.10;97.90;;;;;;5026246;28;20025;-82
2022/05/12 06:46:27;;;;;;;6.32;1.30;;;;;;;;;;5046526;28;20732;-85
2022/05/12 06:48:53;;;;;;;4.18;1.40;;;18.20;97.70;;;;;;5015462;28;20045;-83
2022/05/12 06:51:19;;;;;;;4.43;1.30;;;18.20;98.00;;;;;;5034600;28;20029;-79
2022/05/12 06:53:46;;;;;;;8.70;1.83;;;18.20;98.00;;;;;;5016757;28;20392;-80
2022/05/12 06:56:12;;;;;;;6.00;1.67;;;18.20;97.90;;;;;;5024262;28;20022;-82
2022/05/12 06:58:38;;;;;;;5.35;1.30;;;18.30;97.50;;;;;;5043114;28;20029;-81
2022/05/12 07:01:05;;;;;;;7.22;2.28;;;19.70;97.80;;;;;;5023035;28;20025;-82
2022/05/12 07:03:31;;;;;;;5.15;1.50;;;18.40;97.40;;;;;;5034452;28;20029;-82
2022/05/12 07:05:57;;;;;;;8.40;1.55;;;18.30;97.50;;;;;;5016644;28;20022;-83
2022/05/12 07:08:23;;;;;;;7.75;1.80;;;18.40;97.20;;;;;;5018624;28;20034;-85
2022/05/12 07:10:49;;;;;;;6.70;1.60;;;18.40;97.30;;;;;;5016014;28;20415;-82
2022/05/12 07:13:19;;;;;;;5.18;2.25;;;18.40;97.10;;;;;;5040336;28;20013;-82
2022/05/12 07:15:49;;;;;;;10.32;2.13;;;18.70;96.10;;;;;;5015413;28;20030;-83
2022/05/12 07:18:15;;;;;;;;;;;18.60;96.40;;;;;;5017215;28;20030;-82
2022/05/12 07:28:55;;;;;;;5.30;1.90;;;;;;;;;;5041795;28;20048;-80
2022/05/12 07:31:21;;;;;;;6.68;1.50;;;19.30;95.40;;;;;;5033616;28;21313;-80
2022/05/12 07:33:47;;;;;;;5.45;1.83;;;19.20;95.80;;;;;;5025837;28;20430;-81
2022/05/12 07:36:27;;;;;;;7.03;1.80;;;19.20;95.30;;;;;;5041776;28;20101;-83
2022/05/12 07:38:55;;;;;;;4.40;1.85;;;19.40;95.30;;;;;;5031713;28;20035;-82
2022/05/12 07:41:21;;;;;;;5.75;1.80;;;19.40;95.10;;;;;;5040227;28;20025;-79
2022/05/12 07:43:47;;;;;;;3.88;1.52;;;19.50;94.60;;;;;;5026298;28;20029;-81
2022/05/12 07:46:16;;;;;;;8.38;1.48;;;19.60;94.30;;;;;;5024569;28;20037;-79
2022/05/12 07:48:42;;;;;;;10.25;2.08;;;19.60;94.40;;;;;;5029655;28;20083;-82
2022/05/12 07:51:09;;;;;;;5.50;1.65;;;19.70;94.20;;;;;;5037016;28;20025;-80
2022/05/12 07:53:37;;;;;;;8.77;2.00;;;21.70;94.90;;;;;;5024075;28;20029;-80
2022/05/12 07:56:04;;;;;;;5.95;1.95;;;19.60;94.30;;;;;;5044293;28;20022;-79
2022/05/12 07:58:31;;;;;;;5.97;1.35;;;19.60;94.40;;;;;;5042756;28;20029;-83
2022/05/12 08:00:57;;;;;;;5.22;1.30;;;;;;;;;;5042386;28;20104;-80
2022/05/12 08:03:24;;;;;;;10.85;1.45;;;19.70;93.60;;;;;;5034116;28;20035;-81
2022/05/12 08:05:50;;;;;;;4.50;1.50;;;19.70;92.70;;;;;;5024999;28;20026;-83
2022/05/12 08:08:16;;;;;;;5.13;1.95;;;19.70;92.90;;;;;;5027718;28;20027;-81
2022/05/12 08:10:42;;;;;;;5.97;1.63;;;19.60;93.20;;;;;;5041867;28;20060;-81
2022/05/12 08:13:14;;;;;;;8.10;1.52;;;20.00;92.50;;;;;;5024775;28;20021;-81
2022/05/12 08:15:42;;;;;;;5.20;1.33;;;20.00;92.30;;;;;;5009681;28;20480;-82
2022/05/12 08:18:08;;;;;;;3.33;1.13;;;;;;;;;;5026952;28;20053;-82
2022/05/12 08:20:35;;;;;;;6.95;2.35;;;19.90;92.50;;;;;;5027917;28;20028;-84
2022/05/12 08:23:00;;;;;;;4.45;1.40;;;20.00;92.20;;;;;;5034303;28;20021;-81
2022/05/12 08:25:26;;;;;;;3.20;1.20;;;;;;;;;;5044195;28;20056;-81
2022/05/12 08:27:52;;;;;;;4.10;1.50;;;20.30;91.00;;;;;;5043517;28;20088;-83
2022/05/12 08:30:19;;;;;;;6.60;1.60;;;20.40;91.20;;;;;;5054419;28;20025;-82
2022/05/12 08:32:45;;;;;;;4.43;1.67;;;21.00;89.40;;;;;;5044438;28;20025;-81
2022/05/12 08:35:12;;;;;;;6.10;1.33;;;21.10;87.30;;;;;;5022052;28;20060;-82
2022/05/12 08:37:38;;;;;;;4.28;1.17;;;21.10;87.80;;;;;;5027725;28;20057;-81
2022/05/12 08:40:05;;;;;;;2.92;1.08;;;22.10;87.30;;;;;;5024781;28;20465;-81
2022/05/12 08:42:33;;;;;;;4.10;1.15;;;20.90;86.60;;;;;;5027250;28;20036;-81
2022/05/12 08:45:01;;;;;;;5.18;1.85;;;20.80;87.10;;;;;;5020415;28;20037;-81
2022/05/12 08:47:31;;;;;;;3.65;1.40;;;21.10;87.30;;;;;;5040678;28;20037;-81
2022/05/12 08:49:58;;;;;;;4.93;1.10;;;21.20;87.30;;;;;;5042014;28;20080;-81
2022/05/12 08:52:31;;;;;;;4.15;1.60;;;21.20;86.70;;;;;;5025056;28;20390;-82
2022/05/12 08:55:16;;;;;;;8.02;1.50;;;21.00;86.80;;;;;;5026675;28;20097;-83
2022/05/12 08:58:03;;;;;;;4.72;1.30;;;20.90;86.90;;;;;;5041470;28;20025;-80
2022/05/12 09:01:01;;;;;;;4.85;1.38;;;20.80;87.90;;;;;;5037296;28;20017;-80
2022/05/12 09:04:17;;;;;;;3.17;1.15;;;21.20;86.90;;;;;;5039865;28;20037;-82
2022/05/12 09:06:52;;;;;;;3.90;1.02;;;21.50;85.80;;;;;;4980179;28;20026;-80
2022/05/12 09:09:37;;;;;;;4.72;0.90;;;21.70;84.90;;;;;;4977843;28;20023;-80
2022/05/12 09:12:19;;;;;;;5.70;1.70;;;21.80;84.80;;;;;;5023250;28;20042;-81
2022/05/12 09:15:03;;;;;;;5.63;2.13;;;21.90;84.50;;;;;;5017933;28;20076;-81
2022/05/12 09:17:39;;;;;;;6.90;1.65;;;22.00;84.50;;;;;;5021416;28;20038;-81
2022/05/12 09:20:09;;;;;;;4.88;1.60;;;21.70;84.90;;;;;;5038710;28;20483;-81
2022/05/12 09:22:36;;;;;;;6.38;1.60;;;21.70;84.80;;;;;;5041760;28;20499;-81
2022/05/12 09:25:02;;;;;;;4.85;1.40;;;21.70;84.30;;;;;;5044770;28;20026;-81
2022/05/12 09:27:32;;;;;;;4.63;1.30;;;21.70;84.10;;;;;;5007880;28;20025;-83
2022/05/12 09:29:59;;;;;;;3.25;1.20;;;21.30;84.70;;;;;;5055725;28;20037;-82
2022/05/12 09:32:32;;;;;;;8.38;1.65;;;21.30;84.70;;;;;;5025241;28;20083;-80
2022/05/12 09:35:04;;;;;;;4.32;1.40;;;21.30;85.30;;;;;;5023401;28;20025;-80
2022/05/12 09:37:31;;;;;;;6.57;1.90;;;21.20;85.80;;;;;;5030322;28;20034;-82
2022/05/12 09:40:13;;;;;;;4.95;1.83;;;22.00;86.40;;;;;;5028988;28;20121;-80
2022/05/12 09:42:45;;;;;;;4.93;1.55;;;21.20;86.80;;;;;;5030420;28;20025;-80
2022/05/12 09:45:25;;;;;;;7.82;1.63;;;21.10;86.40;;;;;;5038292;28;20048;-83
2022/05/12 09:48:07;;;;;;;;;;;21.10;86.80;;;;;;5047129;28;20034;-81
2022/05/12 09:50:33;;;;;;;6.20;1.75;;;21.10;86.20;;;;;;5042304;28;19969;-81
2022/05/12 09:53:06;;;;;;;6.97;1.30;;;21.10;86.80;;;;;;5027266;28;20470;-80
2022/05/12 09:55:37;;;;;;;7.38;1.60;;;21.20;87.00;;;;;;5027948;28;20021;-82
2022/05/12 09:58:05;;;;;;;7.15;1.90;;;21.50;86.30;;;;;;5045317;28;20539;-83
2022/05/12 10:00:48;;;;;;;7.43;1.90;;;21.80;86.10;;;;;;5025675;28;20030;-82
2022/05/12 10:09:07;;;;;;;4.00;1.50;;;22.30;85.10;;;;;;5036994;28;20048;-81
2022/05/12 10:11:43;;;;;;;4.80;1.73;;;22.20;84.50;;;;;;5051604;28;20021;-81
2022/05/12 10:14:24;;;;;;;5.25;1.80;;;22.10;85.30;;;;;;5029822;28;20550;-84
2022/05/12 10:16:53;;;;;;;5.63;1.55;;;22.60;83.90;;;;;;5025862;28;20097;-81
2022/05/12 10:19:22;;;;;;;4.75;1.35;;;22.90;83.10;;;;;;5029978;28;20021;-83
2022/05/12 10:22:00;;;;;;;5.75;1.85;;;22.90;83.60;;;;;;5024838;28;20059;-80
2022/05/12 10:24:32;;;;;;;5.65;1.63;;;23.00;83.10;;;;;;5040965;28;20542;-82
2022/05/12 10:27:07;;;;;;;3.00;1.25;;;23.20;83.80;;;;;;5043914;28;20072;-83
2022/05/12 10:30:00;;;;;;;5.22;1.67;;;23.20;81.90;;;;;;5029132;28;20030;-80
2022/05/12 10:32:49;;;;;;;7.45;1.38;;;23.80;80.10;;;;;;5028561;28;20032;-82
2022/05/12 10:35:22;;;;;;;9.15;2.70;;;23.80;80.70;;;;;;5046661;28;20033;-83
2022/05/12 10:38:01;;;;;;;5.60;1.67;;;23.50;81.90;;;;;;5038868;28;20025;-81
2022/05/12 10:40:46;;;;;;;8.73;1.63;;;23.70;80.50;;;;;;5023883;28;20052;-80
2022/05/12 10:43:12;;;;;;;5.38;2.38;;;23.90;80.90;;;;;;5024492;28;20037;-82
2022/05/12 10:45:49;;;;;;;5.25;1.73;;;24.50;78.30;;;;;;5030225;28;20029;-80
2022/05/12 10:48:27;;;;;;;7.70;1.80;;;24.50;79.10;;;;;;5043204;28;20025;-83
2022/05/12 10:51:02;;;;;;;6.70;1.55;;;24.70;76.70;;;;;;5025636;28;20040;-82
2022/05/12 10:53:48;;;;;;;3.65;1.50;;;24.60;76.90;;;;;;5019734;28;20033;-81
2022/05/12 10:56:33;;;;;;;3.85;1.45;;;24.50;77.40;;;;;;5026048;28;20021;-81
2022/05/12 10:59:00;;;;;;;5.63;1.83;;;24.30;77.60;;;;;;5024666;28;20025;-82
2022/05/12 11:01:35;;;;;;;5.90;1.75;;;24.20;77.90;;;;;;5024089;28;20032;-81
2022/05/12 11:04:14;;;;;;;6.93;2.13;;;24.00;78.50;;;;;;5023715;28;20029;-82
2022/05/12 11:06:45;;;;;;;6.47;1.70;;;23.90;79.20;;;;;;5040654;28;20033;-85
2022/05/12 11:09:24;;;;;;;5.68;1.65;;;23.90;78.40;;;;;;5030373;28;20025;-84
2022/05/12 11:11:51;;;;;;;17.95;6.80;;;23.80;78.20;;;;;;5025776;28;20040;-82
2022/05/12 11:14:31;;;;;;;7.82;2.67;;;23.90;78.60;;;;;;5027684;28;20029;-81
2022/05/12 11:17:16;;;;;;;6.28;2.75;;;24.30;78.10;;;;;;5023106;28;20033;-81
2022/05/12 11:19:55;;;;;;;8.23;2.13;;;24.30;78.40;;;;;;5049906;28;20045;-82
2022/05/12 11:22:45;;;;;;;4.88;1.70;;;24.40;78.20;;;;;;5020945;28;20018;-82
2022/05/12 11:25:31;;;;;;;3.30;1.40;;;24.50;76.70;;;;;;5039278;28;20026;-81
2022/05/12 11:31:12;;;;;;;3.97;1.60;;;24.40;77.40;;;;;;5040208;28;20048;-83
2022/05/12 11:33:40;;;;;;;11.95;2.03;;;24.00;77.00;;;;;;5020577;28;20022;-85
2022/05/12 11:36:09;;;;;;;6.90;1.60;;;23.70;77.50;;;;;;5025150;28;20038;-83
2022/05/12 11:38:43;;;;;;;9.00;4.85;;;24.20;78.30;;;;;;5024278;28;20037;-81
2022/05/12 11:41:37;;;;;;;6.85;1.83;;;24.10;78.80;;;;;;5041706;28;20568;-82
2022/05/12 11:44:34;;;;;;;4.40;1.60;;;24.30;76.70;;;;;;5033520;28;20039;-83
2022/05/12 11:47:19;;;;;;;3.90;1.70;;;24.50;76.10;;;;;;5017545;28;20036;-84
2022/05/12 11:49:51;;;;;;;4.07;1.50;;;24.50;75.00;;;;;;5007417;28;20041;-81
2022/05/12 11:52:26;;;;;;;4.75;1.42;;;24.20;75.60;;;;;;5042059;28;20021;-81
2022/05/12 11:54:55;;;;;;;8.10;1.77;;;23.80;76.80;;;;;;5033338;28;20697;-84
2022/05/12 11:57:32;;;;;;;8.55;1.65;;;23.60;76.20;;;;;;5022620;28;20088;-83
2022/05/12 12:00:04;;;;;;;4.50;1.42;;;23.70;76.50;;;;;;5028125;28;20037;-81
2022/05/12 12:02:29;;;;;;;8.30;1.58;;;23.80;76.80;;;;;;5035960;28;20022;-83
2022/05/12 12:04:57;;;;;;;5.05;1.48;;;24.20;75.40;;;;;;5046231;28;20030;-84
2022/05/12 12:07:32;;;;;;;3.13;1.42;;;24.10;75.70;;;;;;5026146;28;20091;-85
2022/05/12 12:10:08;;;;;;;5.63;1.73;;;24.10;77.20;;;;;;5036791;28;20057;-80
2022/05/12 12:12:40;;;;;;;4.20;1.40;;;24.40;75.60;;;;;;5037081;28;20414;-82
2022/05/12 12:15:10;;;;;;;6.03;2.50;;;24.50;74.10;;;;;;5045749;28;20104;-82
2022/05/12 12:17:39;;;;;;;3.95;1.52;;;24.80;73.90;;;;;;5040777;28;20608;-82
2022/05/12 12:20:06;;;;;;;5.72;1.48;;;;;;;;;;5040332;28;20510;-84
2022/05/12 12:22:35;;;;;;;5.55;1.70;;;25.00;73.10;;;;;;5022256;28;20033;-83
2022/05/12 12:25:32;;;;;;;5.53;1.60;;;25.00;73.70;;;;;;5037427;28;20022;-83
2022/05/12 12:27:58;;;;;;;4.05;1.38;;;;;;;;;;5021894;28;20037;-83
2022/05/12 12:30:30;;;;;;;5.43;1.55;;;24.90;73.00;;;;;;5025920;28;20089;-83
2022/05/12 12:33:31;;;;;;;6.00;1.42;;;24.80;73.10;;;;;;5044520;28;20030;-84
2022/05/12 12:36:04;;;;;;;5.80;1.75;;;25.00;73.30;;;;;;5044666;28;20033;-83
2022/05/12 12:38:48;;;;;;;6.93;1.77;;;25.00;72.30;;;;;;5020361;28;20040;-84
2022/05/12 12:41:17;;;;;;;3.85;1.30;;;24.90;70.50;;;;;;5025773;28;20149;-85
2022/05/12 12:43:49;;;;;;;4.82;1.58;;;24.80;71.30;;;;;;5039876;28;20022;-82
2022/05/12 12:46:47;;;;;;;4.32;1.20;;;26.30;73.50;;;;;;5022140;28;20029;-84
2022/05/12 12:49:24;;;;;;;6.93;1.35;;;24.30;73.40;;;;;;5031275;28;20026;-83
2022/05/12 12:51:57;;;;;;;3.92;1.38;;;24.60;74.80;;;;;;5025462;28;20025;-84
2022/05/12 12:57:16;;;;;;;5.38;1.33;;;24.50;72.80;;;;;;5046985;28;20063;-83
2022/05/12 12:59:49;;;;;;;2.50;1.20;;;24.70;72.50;;;;;;5043363;28;20037;-83
2022/05/12 13:02:43;;;;;;;3.65;1.50;;;24.80;72.10;;;;;;5042066;28;20173;-83
2022/05/12 13:05:13;;;;;;;6.70;1.63;;;25.00;71.80;;;;;;5041453;28;20049;-83
2022/05/12 13:07:41;;;;;;;5.20;1.67;;;25.10;70.00;;;;;;5028936;28;20135;-86
2022/05/12 13:10:11;;;;;;;6.25;1.70;;;25.10;70.50;;;;;;5039902;28;20041;-85
2022/05/12 13:12:37;;;;;;;5.65;1.45;;;25.20;71.40;;;;;;5028569;28;20170;-82
2022/05/12 13:15:15;;;;;;;5.75;1.42;;;25.10;71.40;;;;;;5027910;28;20092;-83
2022/05/12 13:17:48;;;;;;;3.20;1.52;;;25.30;71.30;;;;;;5040122;28;20041;-84
2022/05/12 13:20:18;;;;;;;8.32;2.53;;;25.40;71.30;;;;;;5026496;28;20541;-81
2022/05/12 13:22:59;;;;;;;3.58;1.20;;;25.40;70.00;;;;;;5024919;28;20057;-83
2022/05/12 13:25:30;;;;;;;11.00;6.15;;;25.40;70.20;;;;;;5026284;28;20029;-81
2022/05/12 13:27:56;;;;;;;3.25;1.48;;;25.30;70.50;;;;;;5022906;28;20495;-82
2022/05/12 13:30:34;;;;;;;2.38;1.20;;;25.10;70.80;;;;;;5024691;28;20052;-84
2022/05/12 13:33:26;;;;;;;4.10;1.65;;;24.90;71.30;;;;;;5023740;28;20110;-81
2022/05/12 13:36:04;;;;;;;4.28;1.48;;;24.90;70.10;;;;;;5016903;28;20037;-82
2022/05/12 13:38:41;;;;;;;4.60;1.25;;;24.90;70.20;;;;;;5014071;28;20059;-82